sensor_id;sensor_type;location;lat;lon;timestamp;pressure;altitude;pressure_sealevel;temperature;humidity
17072;BME280;7731;50.720;6.912;2022-07-29T00:02:02;99999.06;;;18.27;nan
17072;BME280;7731;50.720;6.912;2022-07-29T00:04:35;100001.88;;;18.35;nan
17072;BME280;7731;50.720;6.912;2022-07-29T00:07:08;100006.69;;;18.40;nan
17072;BME280;7731;50.720;6.912;2022-07-29T00:09:40;100003.06;;;18.31;nan
17072;BME280;7731;50.720;6.912;2022-07-29T00:12:20;99997.75;;;18.33;nan
17072;BME280;7731;50.720;6.912;2022-07-29T00:14:53;99992.31;;;18.46;nan
17072;BME280;7731;50.720;6.912;2022-07-29T00:17:25;99985.25;;;18.58;nan
17072;BME280;7731;50.720;6.912;2022-07-29T00:19:55;99987.88;;;18.36;nan
17072;BME280;7731;50.720;6.912;2022-07-29T00:22:28;99987.28;;;18.23;nan
17072;BME280;7731;50.720;6.912;2022-07-29T00:24:58;99985.59;;;18.12;nan
17072;BME280;7731;50.720;6.912;2022-07-29T00:27:29;99978.47;;;18.35;nan
17072;BME280;7731;50.720;6.912;2022-07-29T00:29:59;99970.28;;;18.50;nan
17072;BME280;7731;50.720;6.912;2022-07-29T00:32:29;99970.75;;;18.65;nan
17072;BME280;7731;50.720;6.912;2022-07-29T00:35:00;99969.69;;;18.77;nan
17072;BME280;7731;50.720;6.912;2022-07-29T00:37:45;99958.97;;;18.70;nan
17072;BME280;7731;50.720;6.912;2022-07-29T00:40:15;99963.13;;;18.83;nan
17072;BME280;7731;50.720;6.912;2022-07-29T00:42:52;99959.22;;;18.58;nan
17072;BME280;7731;50.720;6.912;2022-07-29T00:45:22;99951.47;;;18.36;nan
17072;BME280;7731;50.720;6.912;2022-07-29T00:47:53;99939.56;;;18.74;nan
17072;BME280;7731;50.720;6.912;2022-07-29T00:50:23;99931.19;;;18.71;nan
17072;BME280;7731;50.720;6.912;2022-07-29T00:52:56;99932.22;;;18.49;nan
17072;BME280;7731;50.720;6.912;2022-07-29T00:55:27;99931.06;;;18.72;nan
17072;BME280;7731;50.720;6.912;2022-07-29T00:57:59;99936.19;;;18.94;nan
17072;BME280;7731;50.720;6.912;2022-07-29T01:00:30;99934.47;;;18.63;nan
17072;BME280;7731;50.720;6.912;2022-07-29T01:03:01;99936.59;;;18.89;nan
17072;BME280;7731;50.720;6.912;2022-07-29T01:05:31;99948.44;;;18.62;nan
17072;BME280;7731;50.720;6.912;2022-07-29T01:08:20;99951.22;;;18.39;nan
17072;BME280;7731;50.720;6.912;2022-07-29T01:10:52;99947.13;;;18.37;nan
17072;BME280;7731;50.720;6.912;2022-07-29T01:13:23;99950.00;;;18.44;nan
17072;BME280;7731;50.720;6.912;2022-07-29T01:16:01;99948.94;;;18.46;nan
17072;BME280;7731;50.720;6.912;2022-07-29T01:18:39;99948.97;;;18.25;nan
17072;BME280;7731;50.720;6.912;2022-07-29T01:21:47;99935.16;;;17.94;nan
17072;BME280;7731;50.720;6.912;2022-07-29T01:25:03;99932.69;;;17.92;nan
17072;BME280;7731;50.720;6.912;2022-07-29T01:27:51;99929.03;;;17.83;nan
17072;BME280;7731;50.720;6.912;2022-07-29T01:30:32;99925.34;;;17.86;nan
17072;BME280;7731;50.720;6.912;2022-07-29T01:33:11;99919.28;;;17.76;nan
17072;BME280;7731;50.720;6.912;2022-07-29T01:36:11;99913.06;;;17.67;nan
17072;BME280;7731;50.720;6.912;2022-07-29T01:38:50;99920.00;;;17.88;nan
17072;BME280;7731;50.720;6.912;2022-07-29T01:41:24;99919.19;;;17.87;nan
17072;BME280;7731;50.720;6.912;2022-07-29T01:44:04;99917.38;;;17.99;nan
17072;BME280;7731;50.720;6.912;2022-07-29T01:46:53;99921.09;;;17.85;nan
17072;BME280;7731;50.720;6.912;2022-07-29T01:49:30;99926.00;;;17.57;nan
17072;BME280;7731;50.720;6.912;2022-07-29T01:52:07;99919.28;;;17.55;nan
17072;BME280;7731;50.720;6.912;2022-07-29T01:54:45;99906.00;;;17.37;nan
17072;BME280;7731;50.720;6.912;2022-07-29T01:57:20;99906.25;;;17.34;nan
17072;BME280;7731;50.720;6.912;2022-07-29T01:59:52;99907.91;;;17.35;nan
17072;BME280;7731;50.720;6.912;2022-07-29T02:02:28;99909.66;;;17.13;nan
17072;BME280;7731;50.720;6.912;2022-07-29T02:05:00;99913.19;;;17.12;nan
17072;BME280;7731;50.720;6.912;2022-07-29T02:07:33;99900.03;;;16.81;nan
17072;BME280;7731;50.720;6.912;2022-07-29T02:10:07;99904.66;;;16.89;nan
17072;BME280;7731;50.720;6.912;2022-07-29T02:12:40;99911.13;;;16.83;nan
17072;BME280;7731;50.720;6.912;2022-07-29T02:15:18;99899.59;;;16.87;nan
17072;BME280;7731;50.720;6.912;2022-07-29T02:17:56;99896.28;;;16.85;nan
17072;BME280;7731;50.720;6.912;2022-07-29T02:20:29;99901.59;;;16.72;nan
17072;BME280;7731;50.720;6.912;2022-07-29T02:23:02;99898.44;;;16.69;nan
17072;BME280;7731;50.720;6.912;2022-07-29T02:25:34;99898.69;;;16.54;nan
17072;BME280;7731;50.720;6.912;2022-07-29T02:28:07;99900.44;;;16.65;nan
17072;BME280;7731;50.720;6.912;2022-07-29T02:30:42;99887.81;;;16.72;nan
17072;BME280;7731;50.720;6.912;2022-07-29T02:33:18;99893.59;;;16.87;nan
17072;BME280;7731;50.720;6.912;2022-07-29T02:35:50;99900.84;;;17.04;nan
17072;BME280;7731;50.720;6.912;2022-07-29T02:38:23;99909.34;;;17.06;nan
17072;BME280;7731;50.720;6.912;2022-07-29T02:41:12;99912.09;;;16.71;nan
17072;BME280;7731;50.720;6.912;2022-07-29T02:43:46;99916.59;;;16.46;nan
17072;BME280;7731;50.720;6.912;2022-07-29T02:46:27;99914.13;;;16.45;nan
17072;BME280;7731;50.720;6.912;2022-07-29T02:49:08;99909.88;;;16.55;nan
17072;BME280;7731;50.720;6.912;2022-07-29T02:51:44;99907.03;;;16.69;nan
17072;BME280;7731;50.720;6.912;2022-07-29T02:54:24;99915.16;;;16.65;nan
17072;BME280;7731;50.720;6.912;2022-07-29T02:57:01;99922.16;;;16.53;nan
17072;BME280;7731;50.720;6.912;2022-07-29T02:59:36;99920.16;;;16.45;nan
17072;BME280;7731;50.720;6.912;2022-07-29T03:02:08;99920.38;;;16.53;nan
17072;BME280;7731;50.720;6.912;2022-07-29T03:04:43;99922.50;;;16.37;nan
17072;BME280;7731;50.720;6.912;2022-07-29T03:07:20;99929.81;;;16.32;nan
17072;BME280;7731;50.720;6.912;2022-07-29T03:09:51;99921.56;;;16.38;nan
17072;BME280;7731;50.720;6.912;2022-07-29T03:12:23;99927.34;;;16.30;nan
17072;BME280;7731;50.720;6.912;2022-07-29T03:14:55;99920.16;;;16.45;nan
17072;BME280;7731;50.720;6.912;2022-07-29T03:17:26;99929.81;;;16.43;nan
17072;BME280;7731;50.720;6.912;2022-07-29T03:19:59;99924.97;;;16.38;nan
17072;BME280;7731;50.720;6.912;2022-07-29T03:22:31;99924.88;;;16.17;nan
17072;BME280;7731;50.720;6.912;2022-07-29T03:25:08;99921.31;;;16.18;nan
17072;BME280;7731;50.720;6.912;2022-07-29T03:27:39;99922.72;;;16.00;nan
17072;BME280;7731;50.720;6.912;2022-07-29T03:30:12;99918.03;;;16.16;nan
17072;BME280;7731;50.720;6.912;2022-07-29T03:32:49;99924.63;;;16.32;nan
17072;BME280;7731;50.720;6.912;2022-07-29T03:35:25;99923.44;;;16.24;nan
17072;BME280;7731;50.720;6.912;2022-07-29T03:37:57;99905.41;;;16.23;nan
17072;BME280;7731;50.720;6.912;2022-07-29T03:40:33;99917.56;;;16.22;nan
17072;BME280;7731;50.720;6.912;2022-07-29T03:43:07;99922.72;;;16.00;nan
17072;BME280;7731;50.720;6.912;2022-07-29T03:45:42;99922.94;;;15.85;nan
17072;BME280;7731;50.720;6.912;2022-07-29T03:48:17;99919.56;;;16.07;nan
17072;BME280;7731;50.720;6.912;2022-07-29T03:50:52;99923.44;;;16.02;nan
17072;BME280;7731;50.720;6.912;2022-07-29T03:53:23;99921.09;;;16.10;nan
17072;BME280;7731;50.720;6.912;2022-07-29T03:55:57;99921.06;;;15.87;nan
17072;BME280;7731;50.720;6.912;2022-07-29T03:58:31;99919.88;;;15.80;nan
17072;BME280;7731;50.720;6.912;2022-07-29T04:01:02;99919.91;;;16.03;nan
17072;BME280;7731;50.720;6.912;2022-07-29T04:03:34;99917.06;;;15.95;nan
17072;BME280;7731;50.720;6.912;2022-07-29T04:06:07;99910.22;;;15.82;nan
17072;BME280;7731;50.720;6.912;2022-07-29T04:08:38;99919.44;;;15.86;nan
17072;BME280;7731;50.720;6.912;2022-07-29T04:11:08;99917.81;;;16.08;nan
17072;BME280;7731;50.720;6.912;2022-07-29T04:13:38;99922.75;;;16.11;nan
17072;BME280;7731;50.720;6.912;2022-07-29T04:16:09;99927.91;;;15.88;nan
17072;BME280;7731;50.720;6.912;2022-07-29T04:18:39;99932.03;;;16.02;nan
17072;BME280;7731;50.720;6.912;2022-07-29T04:21:12;99925.66;;;15.84;nan
17072;BME280;7731;50.720;6.912;2022-07-29T04:23:42;99926.59;;;15.83;nan
17072;BME280;7731;50.720;6.912;2022-07-29T04:26:20;99937.47;;;15.75;nan
17072;BME280;7731;50.720;6.912;2022-07-29T04:28:50;99941.56;;;15.91;nan
17072;BME280;7731;50.720;6.912;2022-07-29T04:31:20;99944.41;;;15.99;nan
17072;BME280;7731;50.720;6.912;2022-07-29T04:33:52;99948.88;;;15.97;nan
17072;BME280;7731;50.720;6.912;2022-07-29T04:36:25;99947.31;;;15.83;nan
17072;BME280;7731;50.720;6.912;2022-07-29T04:38:56;99962.16;;;15.81;nan
17072;BME280;7731;50.720;6.912;2022-07-29T04:41:28;99960.25;;;15.83;nan
17072;BME280;7731;50.720;6.912;2022-07-29T04:43:59;99950.50;;;15.86;nan
17072;BME280;7731;50.720;6.912;2022-07-29T04:46:38;99958.91;;;16.24;nan
17072;BME280;7731;50.720;6.912;2022-07-29T04:49:09;99962.56;;;16.55;nan
17072;BME280;7731;50.720;6.912;2022-07-29T04:51:43;99962.81;;;16.64;nan
17072;BME280;7731;50.720;6.912;2022-07-29T04:54:13;99966.47;;;16.38;nan
17072;BME280;7731;50.720;6.912;2022-07-29T04:56:44;99975.06;;;16.61;nan
17072;BME280;7731;50.720;6.912;2022-07-29T04:59:14;99978.13;;;16.55;nan
17072;BME280;7731;50.720;6.912;2022-07-29T05:01:45;99981.69;;;16.54;nan
17072;BME280;7731;50.720;6.912;2022-07-29T05:04:15;99979.31;;;16.40;nan
17072;BME280;7731;50.720;6.912;2022-07-29T05:06:49;99983.28;;;16.21;nan
17072;BME280;7731;50.720;6.912;2022-07-29T05:09:19;99991.81;;;16.35;nan
17072;BME280;7731;50.720;6.912;2022-07-29T05:11:49;99990.59;;;16.28;nan
17072;BME280;7731;50.720;6.912;2022-07-29T05:14:19;99984.34;;;16.07;nan
17072;BME280;7731;50.720;6.912;2022-07-29T05:16:50;99992.97;;;16.19;nan
17072;BME280;7731;50.720;6.912;2022-07-29T05:19:23;100003.56;;;16.28;nan
17072;BME280;7731;50.720;6.912;2022-07-29T05:21:56;100000.03;;;16.40;nan
17072;BME280;7731;50.720;6.912;2022-07-29T05:24:27;100006.19;;;16.50;nan
17072;BME280;7731;50.720;6.912;2022-07-29T05:26:57;100008.56;;;16.53;nan
17072;BME280;7731;50.720;6.912;2022-07-29T05:29:27;100014.09;;;16.49;nan
17072;BME280;7731;50.720;6.912;2022-07-29T05:32:11;100032.59;;;16.78;nan
17072;BME280;7731;50.720;6.912;2022-07-29T05:34:42;100039.34;;;16.92;nan
17072;BME280;7731;50.720;6.912;2022-07-29T05:37:20;100037.22;;;17.08;nan
17072;BME280;7731;50.720;6.912;2022-07-29T05:39:51;100030.47;;;17.17;nan
17072;BME280;7731;50.720;6.912;2022-07-29T05:42:27;100029.31;;;17.54;nan
17072;BME280;7731;50.720;6.912;2022-07-29T05:44:58;100028.44;;;17.64;nan
17072;BME280;7731;50.720;6.912;2022-07-29T05:47:28;100032.75;;;18.29;nan
17072;BME280;7731;50.720;6.912;2022-07-29T05:49:58;100039.31;;;18.23;nan
17072;BME280;7731;50.720;6.912;2022-07-29T05:52:31;100049.78;;;18.43;nan
17072;BME280;7731;50.720;6.912;2022-07-29T05:55:02;100045.91;;;18.89;nan
17072;BME280;7731;50.720;6.912;2022-07-29T05:57:32;100042.44;;;18.79;nan
17072;BME280;7731;50.720;6.912;2022-07-29T06:00:05;100037.38;;;18.77;nan
17072;BME280;7731;50.720;6.912;2022-07-29T06:02:35;100041.88;;;18.75;nan
17072;BME280;7731;50.720;6.912;2022-07-29T06:05:07;100042.25;;;19.91;nan
17072;BME280;7731;50.720;6.912;2022-07-29T06:07:46;100024.59;;;20.79;nan
17072;BME280;7731;50.720;6.912;2022-07-29T06:10:17;100032.66;;;22.04;nan
17072;BME280;7731;50.720;6.912;2022-07-29T06:12:53;100041.78;;;21.28;nan
17072;BME280;7731;50.720;6.912;2022-07-29T06:15:23;100043.72;;;19.64;nan
17072;BME280;7731;50.720;6.912;2022-07-29T06:17:53;100045.25;;;19.96;nan
17072;BME280;7731;50.720;6.912;2022-07-29T06:20:28;100033.16;;;20.14;nan
17072;BME280;7731;50.720;6.912;2022-07-29T06:23:02;100031.34;;;20.25;nan
17072;BME280;7731;50.720;6.912;2022-07-29T06:25:32;100035.38;;;19.51;nan
17072;BME280;7731;50.720;6.912;2022-07-29T06:28:04;100044.03;;;18.91;nan
17072;BME280;7731;50.720;6.912;2022-07-29T06:30:34;100041.59;;;18.78;nan
17072;BME280;7731;50.720;6.912;2022-07-29T06:33:05;100027.66;;;19.20;nan
17072;BME280;7731;50.720;6.912;2022-07-29T06:35:36;100034.19;;;18.73;nan
17072;BME280;7731;50.720;6.912;2022-07-29T06:38:18;100032.16;;;18.77;nan
17072;BME280;7731;50.720;6.912;2022-07-29T06:41:01;100041.00;;;18.34;nan
17072;BME280;7731;50.720;6.912;2022-07-29T06:43:35;100027.41;;;17.88;nan
17072;BME280;7731;50.720;6.912;2022-07-29T06:46:18;100030.69;;;18.01;nan
17072;BME280;7731;50.720;6.912;2022-07-29T06:48:50;100037.38;;;18.25;nan
17072;BME280;7731;50.720;6.912;2022-07-29T06:51:21;100052.28;;;17.70;nan
17072;BME280;7731;50.720;6.912;2022-07-29T06:53:54;100058.94;;;17.95;nan
17072;BME280;7731;50.720;6.912;2022-07-29T06:56:30;100056.34;;;17.95;nan
17072;BME280;7731;50.720;6.912;2022-07-29T06:59:07;100050.06;;;17.97;nan
17072;BME280;7731;50.720;6.912;2022-07-29T07:01:41;100050.81;;;17.77;nan
17072;BME280;7731;50.720;6.912;2022-07-29T07:04:12;100048.69;;;17.82;nan
17072;BME280;7731;50.720;6.912;2022-07-29T07:06:43;100053.66;;;17.85;nan
17072;BME280;7731;50.720;6.912;2022-07-29T07:09:16;100050.53;;;18.24;nan
17072;BME280;7731;50.720;6.912;2022-07-29T07:11:46;100060.97;;;18.54;nan
17072;BME280;7731;50.720;6.912;2022-07-29T07:14:16;100052.56;;;18.20;nan
17072;BME280;7731;50.720;6.912;2022-07-29T07:16:47;100061.94;;;17.79;nan
17072;BME280;7731;50.720;6.912;2022-07-29T07:19:20;100071.00;;;17.52;nan
17072;BME280;7731;50.720;6.912;2022-07-29T07:21:51;100070.81;;;18.30;nan
17072;BME280;7731;50.720;6.912;2022-07-29T07:24:25;100072.28;;;18.01;nan
17072;BME280;7731;50.720;6.912;2022-07-29T07:26:55;100065.50;;;18.31;nan
17072;BME280;7731;50.720;6.912;2022-07-29T07:29:25;100071.19;;;18.25;nan
17072;BME280;7731;50.720;6.912;2022-07-29T07:31:57;100073.22;;;18.00;nan
17072;BME280;7731;50.720;6.912;2022-07-29T07:34:27;100065.22;;;17.92;nan
17072;BME280;7731;50.720;6.912;2022-07-29T07:36:58;100062.75;;;18.54;nan
17072;BME280;7731;50.720;6.912;2022-07-29T07:39:30;100059.28;;;18.01;nan
17072;BME280;7731;50.720;6.912;2022-07-29T07:42:01;100059.50;;;18.19;nan
17072;BME280;7731;50.720;6.912;2022-07-29T07:44:31;100049.00;;;18.21;nan
17072;BME280;7731;50.720;6.912;2022-07-29T07:47:23;100050.56;;;17.91;nan
17072;BME280;7731;50.720;6.912;2022-07-29T07:49:54;100051.16;;;18.37;nan
17072;BME280;7731;50.720;6.912;2022-07-29T07:52:24;100048.69;;;18.14;nan
17072;BME280;7731;50.720;6.912;2022-07-29T07:54:57;100057.06;;;17.85;nan
17072;BME280;7731;50.720;6.912;2022-07-29T07:57:28;100054.84;;;17.81;nan
17072;BME280;7731;50.720;6.912;2022-07-29T08:00:02;100054.66;;;17.73;nan
17072;BME280;7731;50.720;6.912;2022-07-29T08:02:32;100049.13;;;18.19;nan
17072;BME280;7731;50.720;6.912;2022-07-29T08:05:04;100050.72;;;18.63;nan
17072;BME280;7731;50.720;6.912;2022-07-29T08:07:39;100057.38;;;18.03;nan
17072;BME280;7731;50.720;6.912;2022-07-29T08:10:14;100054.41;;;18.08;nan
17072;BME280;7731;50.720;6.912;2022-07-29T08:13:05;100053.56;;;18.29;nan
17072;BME280;7731;50.720;6.912;2022-07-29T08:15:35;100051.53;;;17.79;nan
17072;BME280;7731;50.720;6.912;2022-07-29T08:18:06;100048.00;;;18.12;nan
17072;BME280;7731;50.720;6.912;2022-07-29T08:20:37;100049.53;;;18.46;nan
17072;BME280;7731;50.720;6.912;2022-07-29T08:23:08;100044.84;;;18.39;nan
17072;BME280;7731;50.720;6.912;2022-07-29T08:25:41;100042.09;;;18.62;nan
17072;BME280;7731;50.720;6.912;2022-07-29T08:28:16;100045.25;;;18.87;nan
17072;BME280;7731;50.720;6.912;2022-07-29T08:30:46;100045.72;;;19.12;nan
17072;BME280;7731;50.720;6.912;2022-07-29T08:33:17;100042.78;;;20.61;nan
17072;BME280;7731;50.720;6.912;2022-07-29T08:35:48;100036.00;;;21.70;nan
17072;BME280;7731;50.720;6.912;2022-07-29T08:38:19;100040.66;;;23.40;nan
17072;BME280;7731;50.720;6.912;2022-07-29T08:40:52;100039.19;;;23.54;nan
17072;BME280;7731;50.720;6.912;2022-07-29T08:43:23;100042.75;;;24.43;nan
17072;BME280;7731;50.720;6.912;2022-07-29T08:45:53;100033.78;;;27.27;nan
17072;BME280;7731;50.720;6.912;2022-07-29T08:48:24;100033.34;;;27.02;nan
17072;BME280;7731;50.720;6.912;2022-07-29T08:50:56;100039.78;;;25.34;nan
17072;BME280;7731;50.720;6.912;2022-07-29T08:53:29;100034.84;;;26.75;nan
17072;BME280;7731;50.720;6.912;2022-07-29T08:56:02;100039.63;;;25.51;nan
17072;BME280;7731;50.720;6.912;2022-07-29T08:58:33;100032.00;;;26.17;nan
17072;BME280;7731;50.720;6.912;2022-07-29T09:01:06;100047.34;;;24.50;nan
17072;BME280;7731;50.720;6.912;2022-07-29T09:03:41;100036.81;;;26.58;nan
17072;BME280;7731;50.720;6.912;2022-07-29T09:06:14;100029.28;;;27.86;nan
17072;BME280;7731;50.720;6.912;2022-07-29T09:08:45;100035.31;;;26.34;nan
17072;BME280;7731;50.720;6.912;2022-07-29T09:11:18;100040.56;;;24.55;nan
17072;BME280;7731;50.720;6.912;2022-07-29T09:13:48;100039.53;;;24.00;nan
17072;BME280;7731;50.720;6.912;2022-07-29T09:16:19;100039.34;;;24.18;nan
17072;BME280;7731;50.720;6.912;2022-07-29T09:19:21;100040.75;;;23.14;nan
17072;BME280;7731;50.720;6.912;2022-07-29T09:21:53;100040.81;;;23.22;nan
17072;BME280;7731;50.720;6.912;2022-07-29T09:24:53;100029.72;;;25.38;nan
17072;BME280;7731;50.720;6.912;2022-07-29T09:27:26;100031.19;;;25.78;nan
17072;BME280;7731;50.720;6.912;2022-07-29T09:29:58;100025.56;;;26.19;nan
17072;BME280;7731;50.720;6.912;2022-07-29T09:32:30;100037.59;;;25.06;nan
17072;BME280;7731;50.720;6.912;2022-07-29T09:35:19;100040.97;;;24.28;nan
17072;BME280;7731;50.720;6.912;2022-07-29T09:37:50;100031.00;;;24.06;nan
17072;BME280;7731;50.720;6.912;2022-07-29T09:40:23;100025.56;;;26.19;nan
17072;BME280;7731;50.720;6.912;2022-07-29T09:42:56;100024.13;;;27.56;nan
17072;BME280;7731;50.720;6.912;2022-07-29T09:45:29;100026.03;;;26.38;nan
17072;BME280;7731;50.720;6.912;2022-07-29T09:48:13;100031.19;;;24.69;nan
17072;BME280;7731;50.720;6.912;2022-07-29T09:50:45;100026.31;;;26.43;nan
17072;BME280;7731;50.720;6.912;2022-07-29T09:53:31;100015.59;;;27.54;nan
17072;BME280;7731;50.720;6.912;2022-07-29T09:56:02;100021.88;;;26.95;nan
17072;BME280;7731;50.720;6.912;2022-07-29T09:58:35;100019.94;;;28.54;nan
17072;BME280;7731;50.720;6.912;2022-07-29T10:01:06;100021.75;;;29.01;nan
17072;BME280;7731;50.720;6.912;2022-07-29T10:03:51;100025.13;;;26.61;nan
17072;BME280;7731;50.720;6.912;2022-07-29T10:06:21;100022.16;;;28.15;nan
17072;BME280;7731;50.720;6.912;2022-07-29T10:08:52;100018.03;;;28.06;nan
17072;BME280;7731;50.720;6.912;2022-07-29T10:11:22;100017.59;;;27.95;nan
17072;BME280;7731;50.720;6.912;2022-07-29T10:14:16;100018.19;;;25.62;nan
17072;BME280;7731;50.720;6.912;2022-07-29T10:16:46;100014.00;;;27.82;nan
17072;BME280;7731;50.720;6.912;2022-07-29T10:19:17;100022.88;;;25.90;nan
17072;BME280;7731;50.720;6.912;2022-07-29T10:21:48;100025.94;;;25.78;nan
17072;BME280;7731;50.720;6.912;2022-07-29T10:24:26;100027.13;;;24.98;nan
17072;BME280;7731;50.720;6.912;2022-07-29T10:26:58;100013.28;;;26.86;nan
17072;BME280;7731;50.720;6.912;2022-07-29T10:29:32;100013.16;;;26.43;nan
17072;BME280;7731;50.720;6.912;2022-07-29T10:32:20;100004.53;;;27.94;nan
17072;BME280;7731;50.720;6.912;2022-07-29T10:38:16;100015.75;;;26.88;nan
17072;BME280;7731;50.720;6.912;2022-07-29T10:41:05;100012.53;;;28.84;nan
17072;BME280;7731;50.720;6.912;2022-07-29T10:43:54;100001.59;;;29.00;nan
17072;BME280;7731;50.720;6.912;2022-07-29T10:46:34;100014.81;;;27.82;nan
17072;BME280;7731;50.720;6.912;2022-07-29T10:49:10;100017.41;;;26.74;nan
17072;BME280;7731;50.720;6.912;2022-07-29T10:52:00;100009.59;;;27.39;nan
17072;BME280;7731;50.720;6.912;2022-07-29T10:54:49;100009.16;;;26.99;nan
17072;BME280;7731;50.720;6.912;2022-07-29T10:57:26;100011.16;;;28.05;nan
17072;BME280;7731;50.720;6.912;2022-07-29T11:00:31;100008.53;;;28.53;nan
17072;BME280;7731;50.720;6.912;2022-07-29T11:03:05;99996.13;;;29.02;nan
17072;BME280;7731;50.720;6.912;2022-07-29T11:05:56;100004.59;;;28.01;nan
17072;BME280;7731;50.720;6.912;2022-07-29T11:08:27;100008.66;;;27.10;nan
17072;BME280;7731;50.720;6.912;2022-07-29T11:11:31;100002.25;;;27.62;nan
17072;BME280;7731;50.720;6.912;2022-07-29T11:14:03;100001.97;;;28.01;nan
17072;BME280;7731;50.720;6.912;2022-07-29T11:17:02;100008.72;;;27.17;nan
17072;BME280;7731;50.720;6.912;2022-07-29T11:19:36;99997.06;;;27.69;nan
17072;BME280;7731;50.720;6.912;2022-07-29T11:22:32;100001.66;;;28.17;nan
17072;BME280;7731;50.720;6.912;2022-07-29T11:25:23;99999.97;;;27.81;nan
17072;BME280;7731;50.720;6.912;2022-07-29T11:28:19;100007.13;;;26.79;nan
17072;BME280;7731;50.720;6.912;2022-07-29T11:30:53;99994.13;;;28.14;nan
17072;BME280;7731;50.720;6.912;2022-07-29T11:33:29;100005.72;;;27.91;nan
17072;BME280;7731;50.720;6.912;2022-07-29T11:36:22;99998.91;;;28.80;nan
17072;BME280;7731;50.720;6.912;2022-07-29T11:39:26;100001.75;;;27.95;nan
17072;BME280;7731;50.720;6.912;2022-07-29T11:42:36;100007.22;;;26.41;nan
17072;BME280;7731;50.720;6.912;2022-07-29T11:45:46;100003.75;;;27.43;nan
17072;BME280;7731;50.720;6.912;2022-07-29T11:48:17;100007.06;;;27.52;nan
17072;BME280;7731;50.720;6.912;2022-07-29T11:51:12;99995.75;;;28.15;nan
17072;BME280;7731;50.720;6.912;2022-07-29T11:54:13;100007.00;;;28.65;nan
17072;BME280;7731;50.720;6.912;2022-07-29T11:56:54;100007.50;;;28.89;nan
17072;BME280;7731;50.720;6.912;2022-07-29T11:59:25;100000.84;;;27.88;nan
17072;BME280;7731;50.720;6.912;2022-07-29T12:02:00;100001.34;;;27.99;nan
17072;BME280;7731;50.720;6.912;2022-07-29T12:04:52;100008.28;;;28.41;nan
17072;BME280;7731;50.720;6.912;2022-07-29T12:07:27;100003.34;;;28.73;nan
17072;BME280;7731;50.720;6.912;2022-07-29T12:10:06;100003.63;;;28.08;nan
17072;BME280;7731;50.720;6.912;2022-07-29T12:12:55;100003.88;;;27.57;nan
17072;BME280;7731;50.720;6.912;2022-07-29T12:15:26;100002.34;;;27.69;nan
17072;BME280;7731;50.720;6.912;2022-07-29T12:18:15;99989.34;;;27.96;nan
17072;BME280;7731;50.720;6.912;2022-07-29T12:20:59;100000.13;;;27.44;nan
17072;BME280;7731;50.720;6.912;2022-07-29T12:23:31;100001.50;;;27.69;nan
17072;BME280;7731;50.720;6.912;2022-07-29T12:26:07;99996.72;;;27.79;nan
17072;BME280;7731;50.720;6.912;2022-07-29T12:28:51;100003.69;;;27.58;nan
17072;BME280;7731;50.720;6.912;2022-07-29T12:31:22;100003.38;;;26.88;nan
17072;BME280;7731;50.720;6.912;2022-07-29T12:34:11;100001.38;;;27.12;nan
17072;BME280;7731;50.720;6.912;2022-07-29T12:36:42;99987.63;;;28.17;nan
17072;BME280;7731;50.720;6.912;2022-07-29T12:39:15;99992.38;;;27.43;nan
17072;BME280;7731;50.720;6.912;2022-07-29T12:41:47;99988.97;;;28.06;nan
17072;BME280;7731;50.720;6.912;2022-07-29T12:44:45;99996.13;;;27.55;nan
17072;BME280;7731;50.720;6.912;2022-07-29T12:47:17;99988.28;;;27.40;nan
17072;BME280;7731;50.720;6.912;2022-07-29T12:49:49;99994.75;;;27.38;nan
17072;BME280;7731;50.720;6.912;2022-07-29T12:52:28;99983.91;;;27.76;nan
17072;BME280;7731;50.720;6.912;2022-07-29T12:54:59;99983.06;;;27.47;nan
17072;BME280;7731;50.720;6.912;2022-07-29T12:57:45;99985.78;;;27.54;nan
17072;BME280;7731;50.720;6.912;2022-07-29T13:00:23;99989.16;;;27.97;nan
17072;BME280;7731;50.720;6.912;2022-07-29T13:02:57;99984.34;;;28.08;nan
17072;BME280;7731;50.720;6.912;2022-07-29T13:05:40;99977.03;;;27.53;nan
17072;BME280;7731;50.720;6.912;2022-07-29T13:08:17;99982.22;;;27.96;nan
17072;BME280;7731;50.720;6.912;2022-07-29T13:10:49;99973.41;;;28.18;nan
17072;BME280;7731;50.720;6.912;2022-07-29T13:13:22;99973.72;;;28.91;nan
17072;BME280;7731;50.720;6.912;2022-07-29T13:16:07;99972.47;;;28.87;nan
17072;BME280;7731;50.720;6.912;2022-07-29T13:18:38;99979.34;;;28.61;nan
17072;BME280;7731;50.720;6.912;2022-07-29T13:21:13;99982.78;;;28.20;nan
17072;BME280;7731;50.720;6.912;2022-07-29T13:23:45;99992.31;;;27.86;nan
17072;BME280;7731;50.720;6.912;2022-07-29T13:26:15;99988.16;;;27.99;nan
17072;BME280;7731;50.720;6.912;2022-07-29T13:28:49;99985.72;;;28.39;nan
17072;BME280;7731;50.720;6.912;2022-07-29T13:31:19;99979.16;;;28.70;nan
17072;BME280;7731;50.720;6.912;2022-07-29T13:33:49;99978.59;;;28.94;nan
17072;BME280;7731;50.720;6.912;2022-07-29T13:36:20;99974.31;;;28.86;nan
17072;BME280;7731;50.720;6.912;2022-07-29T13:38:50;99980.19;;;28.33;nan
17072;BME280;7731;50.720;6.912;2022-07-29T13:41:21;99977.00;;;28.03;nan
17072;BME280;7731;50.720;6.912;2022-07-29T13:43:54;99980.00;;;27.72;nan
17072;BME280;7731;50.720;6.912;2022-07-29T13:46:25;99980.69;;;27.52;nan
17072;BME280;7731;50.720;6.912;2022-07-29T13:48:55;99974.72;;;27.72;nan
17072;BME280;7731;50.720;6.912;2022-07-29T13:51:25;99976.41;;;27.30;nan
17072;BME280;7731;50.720;6.912;2022-07-29T13:54:20;99974.38;;;27.10;nan
17072;BME280;7731;50.720;6.912;2022-07-29T13:57:15;99981.94;;;27.35;nan
17072;BME280;7731;50.720;6.912;2022-07-29T13:59:48;99980.41;;;27.25;nan
17072;BME280;7731;50.720;6.912;2022-07-29T14:02:21;99988.88;;;27.21;nan
17072;BME280;7731;50.720;6.912;2022-07-29T14:04:52;99984.19;;;27.38;nan
17072;BME280;7731;50.720;6.912;2022-07-29T14:07:23;99973.63;;;27.59;nan
17072;BME280;7731;50.720;6.912;2022-07-29T14:09:53;99987.50;;;27.40;nan
17072;BME280;7731;50.720;6.912;2022-07-29T14:12:24;99981.03;;;27.99;nan
17072;BME280;7731;50.720;6.912;2022-07-29T14:14:56;99976.75;;;28.40;nan
17072;BME280;7731;50.720;6.912;2022-07-29T14:17:27;99966.97;;;28.27;nan